Time;durP1;ratioP1;P1;durP2;ratioP2;P2;SDS_P1;SDS_P2;PMS_P1;PMS_P2;Temp;Humidity;BMP_temperature;BMP_pressure;BME280_temperature;BME280_humidity;BME280_pressure;Samples;Min_cycle;Max_cycle;Signal;HPM_P1;HPM_P2
2023/12/22 00:01:18;;;;;;;4.25;1.45;;;;;;;7.18;94.37;99539.06;4957794;29;20048;-81
2023/12/22 00:03:51;;;;;;;3.03;1.75;;;;;;;7.03;94.83;99545.91;4950251;29;20058;-81
2023/12/22 00:09:10;;;;;;;5.90;1.48;;;;;;;7.08;95.68;99527.22;4907642;28;20462;-81
2023/12/22 00:15:04;;;;;;;9.95;3.15;;;;;;;7.31;96.34;99516.00;4942503;29;20114;-81
2023/12/22 00:20:50;;;;;;;8.63;2.72;;;;;;;7.79;95.28;99470.06;4855496;29;20105;-81
2023/12/22 00:23:21;;;;;;;6.93;2.63;;;;;;;7.94;93.95;99438.94;4881590;29;20063;-81
2023/12/22 00:25:48;;;;;;;6.75;3.13;;;;;;;7.88;94.03;99470.88;4942919;29;20056;-80
2023/12/22 00:28:15;;;;;;;12.63;3.35;;;;;;;8.08;93.53;99487.72;4940546;29;20059;-80
2023/12/22 00:30:51;;;;;;;12.68;3.53;;;;;;;8.29;92.63;99495.00;4941076;29;20443;-80
2023/12/22 00:33:34;;;;;;;9.73;3.03;;;;;;;8.34;92.27;99495.34;4940532;29;20111;-80
2023/12/22 00:36:18;;;;;;;;;;;;;;;8.60;91.72;99513.28;4940356;29;20063;-81
2023/12/22 00:39:09;;;;;;;7.47;2.58;;;;;;;8.33;92.05;99511.97;4933389;29;20349;-81
2023/12/22 00:44:51;;;;;;;7.47;2.28;;;;;;;8.46;92.00;99511.44;4930393;29;20059;-81
2023/12/22 00:50:29;;;;;;;9.02;2.30;;;;;;;8.77;91.64;99499.19;4936927;29;20411;-81
2023/12/22 00:53:14;;;;;;;7.05;2.55;;;;;;;8.74;91.23;99515.19;4941265;29;20405;-80
2023/12/22 00:58:55;;;;;;;13.43;2.90;;;;;;;8.71;91.65;99499.88;4658909;26;20108;-81
2023/12/22 01:01:49;;;;;;;;;;;;;;;;;;;;;
2023/12/22 01:08:01;;;;;;;8.20;2.33;;;;;;;8.68;91.57;99535.91;4922361;29;19933;-81
2023/12/22 01:14:05;;;;;;;15.38;3.05;;;;;;;8.81;91.27;99547.44;4918725;29;20048;-80
2023/12/22 01:19:45;;;;;;;9.30;2.33;;;;;;;9.01;92.00;99554.81;4915875;29;20084;-79
2023/12/22 01:22:14;;;;;;;;;;;;;;;8.96;91.92;99550.13;4926204;29;20048;-80
2023/12/22 01:24:43;;;;;;;15.15;3.33;;;;;;;8.55;92.57;99549.50;4921348;29;19931;-80
2023/12/22 01:27:21;;;;;;;12.65;3.72;;;;;;;8.39;93.20;99588.69;4920312;29;20523;-81
2023/12/22 01:29:48;;;;;;;8.02;2.88;;;;;;;8.77;93.48;99537.50;4922660;29;20048;-81
2023/12/22 01:32:19;;;;;;;10.88;2.90;;;;;;;8.79;93.55;99523.31;4921294;29;20066;-81
2023/12/22 01:34:50;;;;;;;11.55;2.80;;;;;;;8.80;93.14;99511.91;4927039;29;20048;-80
2023/12/22 01:37:23;;;;;;;12.98;2.70;;;;;;;8.67;93.38;99529.88;4922221;29;20048;-82
2023/12/22 01:39:54;;;;;;;;;;;;;;;9.05;92.90;99550.88;4927217;29;20076;-80
2023/12/22 01:42:25;;;;;;;13.30;3.08;;;;;;;8.47;93.27;99552.97;4919633;29;19927;-79
2023/12/22 01:45:01;;;;;;;9.95;3.05;;;;;;;8.70;94.36;99566.06;4914976;29;20486;-80
2023/12/22 01:47:33;;;;;;;6.75;3.25;;;;;;;8.56;94.48;99553.72;4918316;29;20056;-79
2023/12/22 01:50:17;;;;;;;8.85;3.30;;;;;;;8.41;94.29;99560.66;4920170;29;20044;-79
2023/12/22 01:52:54;;;;;;;17.98;3.35;;;;;;;8.34;94.53;99560.50;4922749;29;20116;-81
2023/12/22 01:58:46;;;;;;;12.60;2.97;;;;;;;8.24;95.08;99545.03;4864823;29;20048;-81
2023/12/22 02:04:40;;;;;;;10.30;3.75;;;;;;;8.28;94.14;99548.91;4921505;29;20047;-79
2023/12/22 02:07:16;;;;;;;9.85;3.10;;;;;;;8.51;93.91;99556.03;4934208;29;20111;-79
2023/12/22 02:09:57;;;;;;;11.68;2.95;;;;;;;8.23;93.82;99551.22;4919699;29;20059;-80
2023/12/22 02:12:35;;;;;;;11.45;3.25;;;;;;;8.13;94.38;99552.38;4917455;29;20052;-78
2023/12/22 02:15:11;;;;;;;11.07;2.60;;;;;;;8.18;94.29;99560.50;4915861;29;20055;-78
2023/12/22 02:21:00;;;;;;;9.50;3.15;;;;;;;8.34;93.87;99563.09;4915501;29;20084;-79
2023/12/22 02:27:17;;;;;;;11.97;3.57;;;;;;;8.13;95.69;99570.59;4919414;29;20056;-79
2023/12/22 02:30:05;;;;;;;14.32;3.70;;;;;;;8.24;95.31;99575.47;4915789;29;20072;-79
2023/12/22 02:32:43;;;;;;;12.43;4.18;;;;;;;7.97;95.87;99569.69;4914490;29;20492;-79
2023/12/22 02:38:39;;;;;;;14.65;4.57;;;;;;;8.55;94.35;99521.63;4917081;29;20060;-79
2023/12/22 02:41:25;;;;;;;15.02;4.07;;;;;;;8.69;93.84;99566.22;4917733;29;20503;-79
2023/12/22 02:44:10;;;;;;;16.65;4.80;;;;;;;8.79;94.29;99583.31;4912620;29;20524;-79
2023/12/22 02:46:37;;;;;;;15.52;5.38;;;;;;;8.76;93.46;99567.19;4917007;29;20048;-80
2023/12/22 02:49:14;;;;;;;10.73;3.90;;;;;;;8.52;93.29;99537.59;4918466;29;20451;-80
2023/12/22 02:51:41;;;;;;;11.70;3.83;;;;;;;8.50;94.10;99554.44;4915915;29;20052;-80
2023/12/22 02:54:11;;;;;;;14.13;3.85;;;;;;;8.52;94.04;99547.22;4915621;29;20056;-80
2023/12/22 02:56:52;;;;;;;20.25;4.93;;;;;;;8.35;94.30;99540.47;4927260;29;20143;-80
2023/12/22 02:59:20;;;;;;;11.75;3.45;;;;;;;8.45;94.20;99528.88;4919711;28;20052;-80
2023/12/22 03:01:48;;;;;;;20.27;4.43;;;;;;;8.40;94.24;99538.16;4923455;29;20083;-79
2023/12/22 03:04:16;;;;;;;12.75;4.10;;;;;;;8.70;93.63;99545.19;4917433;29;20052;-79
2023/12/22 03:06:43;;;;;;;10.90;3.40;;;;;;;8.51;93.37;99556.03;4918251;29;20056;-80
2023/12/22 03:09:12;;;;;;;26.77;4.60;;;;;;;8.60;92.60;99542.78;4920473;29;20131;-79
2023/12/22 03:11:44;;;;;;;11.07;3.60;;;;;;;8.63;92.58;99539.03;4923391;29;20059;-80
2023/12/22 03:14:11;;;;;;;18.43;6.30;;;;;;;8.67;92.31;99542.13;4920041;29;20068;-80
2023/12/22 03:16:48;;;;;;;19.58;4.18;;;;;;;8.67;92.07;99532.50;4924175;29;20484;-80
2023/12/22 03:19:22;;;;;;;17.50;3.85;;;;;;;8.59;92.56;99522.09;4922163;29;20070;-80
2023/12/22 03:21:50;;;;;;;20.42;4.70;;;;;;;8.42;91.80;99516.16;4920784;29;20127;-79
2023/12/22 03:24:18;;;;;;;14.60;4.03;;;;;;;8.56;91.94;99517.22;4919718;29;20672;-80
2023/12/22 03:26:54;;;;;;;22.17;4.85;;;;;;;8.57;92.56;99529.28;4918582;29;20134;-78
2023/12/22 03:29:21;;;;;;;17.75;4.80;;;;;;;8.48;92.37;99517.28;4925684;29;20142;-79
2023/12/22 03:31:49;;;;;;;22.80;4.68;;;;;;;8.69;92.70;99517.50;4919436;29;20044;-78
2023/12/22 03:34:15;;;;;;;15.50;3.97;;;;;;;8.81;92.38;99534.38;4920014;29;20203;-78
2023/12/22 03:36:42;;;;;;;18.35;4.32;;;;;;;8.98;91.63;99520.25;4919352;29;20135;-78
2023/12/22 03:39:15;;;;;;;21.83;4.53;;;;;;;9.01;91.77;99539.16;4925709;29;20067;-79
2023/12/22 03:41:42;;;;;;;20.08;4.45;;;;;;;8.99;91.92;99534.91;4929207;29;20055;-79
2023/12/22 03:44:09;;;;;;;17.52;4.68;;;;;;;8.81;91.55;99525.75;4925999;29;20178;-78
2023/12/22 03:46:35;;;;;;;14.85;3.65;;;;;;;8.92;90.76;99525.38;4920778;29;20115;-78
2023/12/22 03:49:04;;;;;;;15.30;3.95;;;;;;;9.04;88.73;99516.13;4922687;29;20094;-79
2023/12/22 03:51:30;;;;;;;20.75;4.60;;;;;;;9.08;87.84;99511.38;4923389;29;20078;-80
2023/12/22 03:53:57;;;;;;;15.40;3.80;;;;;;;8.99;87.08;99513.22;4925774;29;20107;-80
2023/12/22 03:56:23;;;;;;;17.85;3.80;;;;;;;8.97;86.62;99510.81;4926540;29;20155;-79
2023/12/22 03:58:50;;;;;;;15.70;4.55;;;;;;;9.10;86.92;99525.06;4921922;29;20139;-79
2023/12/22 04:01:16;;;;;;;7.43;3.15;;;;;;;9.03;85.65;99513.69;4920156;29;20086;-79
2023/12/22 04:03:43;;;;;;;15.07;3.78;;;;;;;9.20;84.40;99492.53;4921229;29;20079;-80
2023/12/22 04:06:11;;;;;;;10.73;3.33;;;;;;;9.16;84.22;99500.91;4921584;29;20052;-79
2023/12/22 04:08:37;;;;;;;12.65;4.40;;;;;;;8.98;84.18;99496.75;4919362;29;20563;-78
2023/12/22 04:11:04;;;;;;;12.63;3.33;;;;;;;8.98;84.01;99494.16;4919364;29;20115;-77
2023/12/22 04:13:31;;;;;;;13.57;3.75;;;;;;;8.84;83.74;99497.53;4919207;29;20060;-77
2023/12/22 04:15:57;;;;;;;16.35;3.95;;;;;;;8.78;84.41;99521.69;4919880;29;20213;-79
2023/12/22 04:18:24;;;;;;;12.32;3.38;;;;;;;8.84;85.34;99521.00;4921524;29;20056;-79
2023/12/22 04:20:53;;;;;;;12.57;3.72;;;;;;;8.75;86.18;99529.84;4922887;29;20135;-79
2023/12/22 04:23:21;;;;;;;12.10;3.35;;;;;;;8.79;86.86;99533.75;4922763;29;20052;-79
2023/12/22 04:25:48;;;;;;;14.93;4.07;;;;;;;8.48;88.11;99538.13;4921667;29;20163;-79
2023/12/22 04:28:15;;;;;;;11.60;3.65;;;;;;;8.64;88.75;99551.91;4924965;29;20079;-79
2023/12/22 04:30:41;;;;;;;12.70;3.80;;;;;;;8.46;89.46;99547.94;4925118;29;20525;-80
2023/12/22 04:33:08;;;;;;;11.10;3.90;;;;;;;8.50;89.79;99544.81;4921601;29;20079;-78
2023/12/22 04:35:37;;;;;;;21.85;4.10;;;;;;;8.35;90.14;99556.91;4921182;29;20139;-79
2023/12/22 04:38:04;;;;;;;18.33;4.25;;;;;;;8.38;90.08;99545.34;4915318;29;20535;-78
2023/12/22 04:40:32;;;;;;;15.50;4.05;;;;;;;8.45;90.61;99551.50;4918040;29;20310;-77
2023/12/22 04:42:59;;;;;;;13.80;3.50;;;;;;;8.48;90.83;99552.00;4917942;29;20060;-78
2023/12/22 04:45:25;;;;;;;17.02;3.95;;;;;;;8.43;91.31;99558.69;4919915;29;20079;-77
2023/12/22 04:47:52;;;;;;;12.82;4.13;;;;;;;8.46;91.12;99561.78;4920008;29;20142;-78
2023/12/22 04:50:18;;;;;;;20.10;4.20;;;;;;;8.60;91.28;99565.44;4920041;29;20063;-79
2023/12/22 04:52:45;;;;;;;13.73;3.70;;;;;;;8.51;91.38;99567.25;4920563;29;20139;-79
2023/12/22 04:55:12;;;;;;;15.38;4.47;;;;;;;8.58;91.07;99562.19;4919792;29;20563;-78
2023/12/22 04:57:40;;;;;;;18.15;4.70;;;;;;;8.94;91.17;99568.56;4918760;29;20079;-79
2023/12/22 05:00:08;;;;;;;13.25;3.55;;;;;;;8.75;90.57;99570.78;4920463;29;20165;-78
2023/12/22 05:02:34;;;;;;;15.05;4.28;;;;;;;8.97;90.40;99562.19;4911316;29;20094;-79
2023/12/22 05:05:03;;;;;;;13.70;3.97;;;;;;;8.82;90.55;99571.72;4918565;29;20108;-79
2023/12/22 05:07:30;;;;;;;12.65;3.53;;;;;;;8.93;90.57;99577.38;4919601;29;20421;-79
2023/12/22 05:09:56;;;;;;;17.90;4.15;;;;;;;9.01;90.82;99578.28;4919827;29;20056;-79
2023/12/22 05:12:23;;;;;;;15.80;4.38;;;;;;;9.13;90.90;99569.91;4911153;29;20539;-79
2023/12/22 05:14:51;;;;;;;12.85;4.25;;;;;;;9.40;90.36;99581.66;4919456;29;20048;-79
2023/12/22 05:17:17;;;;;;;17.45;4.32;;;;;;;9.14;90.06;99563.69;4917615;29;20056;-79
2023/12/22 05:19:44;;;;;;;15.40;4.28;;;;;;;9.43;90.01;99562.22;4918785;29;20566;-79
2023/12/22 05:22:11;;;;;;;19.95;4.82;;;;;;;9.35;89.88;99570.94;4920220;29;20076;-79
2023/12/22 05:24:38;;;;;;;16.52;4.22;;;;;;;9.39;89.35;99577.41;4919849;29;20058;-78
2023/12/22 05:27:05;;;;;;;17.17;4.00;;;;;;;9.55;89.21;99576.47;4917730;29;20182;-78
2023/12/22 05:29:31;;;;;;;20.85;4.45;;;;;;;9.34;89.16;99587.56;4922452;29;20135;-80
2023/12/22 05:31:59;;;;;;;21.65;5.10;;;;;;;9.67;88.72;99584.72;4921809;29;20048;-78
2023/12/22 05:34:26;;;;;;;13.25;3.97;;;;;;;9.51;88.11;99594.28;4919521;29;20498;-77
2023/12/22 05:36:52;;;;;;;14.15;4.05;;;;;;;9.70;88.33;99581.75;4919032;29;20483;-78
2023/12/22 05:39:19;;;;;;;17.65;5.32;;;;;;;9.55;88.16;99585.13;4920348;29;20181;-77
2023/12/22 05:41:46;;;;;;;14.35;3.88;;;;;;;9.65;87.56;99592.72;4917621;29;20048;-77
2023/12/22 05:44:12;;;;;;;19.15;4.97;;;;;;;9.87;86.13;99573.59;4915496;29;20151;-77
2023/12/22 05:46:39;;;;;;;17.00;4.20;;;;;;;9.76;85.69;99573.22;4914719;29;20048;-77
2023/12/22 05:49:07;;;;;;;14.90;3.97;;;;;;;9.77;85.80;99577.44;4916459;29;20056;-77
2023/12/22 05:51:37;;;;;;;14.63;4.53;;;;;;;9.95;85.71;99577.91;4907272;29;20419;-77
2023/12/22 05:54:04;;;;;;;19.60;4.70;;;;;;;9.87;85.57;99567.56;4909754;29;20167;-77
2023/12/22 05:56:32;;;;;;;13.50;4.03;;;;;;;9.95;85.12;99563.06;4914484;29;20048;-77
2023/12/22 05:58:59;;;;;;;15.02;4.70;;;;;;;10.10;84.36;99567.50;4914903;29;20163;-77
2023/12/22 06:01:25;;;;;;;16.63;3.75;;;;;;;9.90;84.78;99562.81;4915374;29;20182;-77
2023/12/22 06:03:53;;;;;;;13.68;3.70;;;;;;;9.97;85.07;99586.41;4915519;29;20086;-76
2023/12/22 06:06:21;;;;;;;19.48;4.60;;;;;;;9.78;85.03;99576.47;4911550;29;20424;-78
2023/12/22 06:08:48;;;;;;;16.10;3.80;;;;;;;9.79;84.77;99565.84;4917994;29;20052;-78
2023/12/22 06:11:15;;;;;;;14.73;3.63;;;;;;;9.78;84.81;99558.19;4922838;29;20051;-78
2023/12/22 06:13:41;;;;;;;9.10;3.95;;;;;;;9.91;84.66;99568.84;4916441;29;20051;-78
2023/12/22 06:16:13;;;;;;;13.18;4.20;;;;;;;10.07;84.40;99581.75;4920643;29;20054;-78
2023/12/22 06:18:39;;;;;;;15.93;3.88;;;;;;;10.01;84.08;99572.00;4916247;29;20688;-78
2023/12/22 06:21:10;;;;;;;17.38;4.25;;;;;;;9.96;83.61;99582.16;4916139;29;20449;-78
2023/12/22 06:23:38;;;;;;;18.20;4.35;;;;;;;10.13;84.06;99586.25;4908868;29;20052;-78
2023/12/22 06:26:10;;;;;;;14.75;3.65;;;;;;;10.07;83.90;99575.69;4915882;29;20131;-78
2023/12/22 06:28:38;;;;;;;16.80;4.43;;;;;;;10.03;84.37;99583.06;4908602;29;20056;-78
2023/12/22 06:31:05;;;;;;;21.85;5.13;;;;;;;9.96;84.60;99587.38;4916098;29;20799;-78
2023/12/22 06:33:35;;;;;;;20.70;5.15;;;;;;;10.16;85.09;99612.03;4914599;29;20059;-78
2023/12/22 06:36:08;;;;;;;17.08;4.75;;;;;;;10.18;85.32;99617.09;4914446;29;20064;-78
2023/12/22 06:38:45;;;;;;;18.25;4.40;;;;;;;10.03;86.09;99616.25;4909172;29;20115;-77
2023/12/22 06:41:22;;;;;;;19.20;4.72;;;;;;;10.11;86.73;99629.25;4917800;29;20052;-79
2023/12/22 06:43:52;;;;;;;18.30;4.70;;;;;;;10.10;86.77;99643.31;4916752;29;20158;-79
2023/12/22 06:46:23;;;;;;;9.15;3.33;;;;;;;9.80;86.08;99611.06;4921103;29;20071;-79
2023/12/22 06:48:53;;;;;;;7.43;3.55;;;;;;;9.76;84.27;99583.66;4918014;29;20396;-79
2023/12/22 06:51:25;;;;;;;4.40;2.25;;;;;;;9.68;84.22;99579.31;4918655;29;20044;-79
2023/12/22 06:54:00;;;;;;;3.85;2.03;;;;;;;9.84;84.44;99607.13;4917908;29;20056;-79
2023/12/22 06:56:32;;;;;;;8.35;2.90;;;;;;;9.65;86.87;99637.94;4917007;29;20063;-76
2023/12/22 06:59:01;;;;;;;10.10;2.65;;;;;;;9.49;88.49;99658.94;4916886;29;20066;-79
2023/12/22 07:01:31;;;;;;;5.20;2.28;;;;;;;9.33;90.66;99682.53;4918248;29;20076;-79
2023/12/22 07:04:03;;;;;;;5.38;2.90;;;;;;;9.31;90.33;99674.06;4919532;29;20500;-79
2023/12/22 07:06:34;;;;;;;6.50;2.65;;;;;;;9.48;90.06;99659.91;4919852;29;20060;-80
2023/12/22 07:09:34;;;;;;;6.35;2.83;;;;;;;9.49;90.17;99661.53;4920395;29;20515;-81
2023/12/22 07:12:05;;;;;;;8.63;2.78;;;;;;;9.34;90.74;99658.06;4919107;29;20048;-81
2023/12/22 07:14:33;;;;;;;12.15;3.47;;;;;;;9.43;91.46;99669.28;4923491;29;20086;-82
2023/12/22 07:17:06;;;;;;;13.85;3.50;;;;;;;9.45;91.97;99683.75;4922521;29;20491;-79
2023/12/22 07:19:40;;;;;;;17.33;4.10;;;;;;;9.44;93.06;99692.59;4923568;29;20056;-83
2023/12/22 07:22:14;;;;;;;11.65;4.15;;;;;;;9.70;91.23;99649.66;4925190;29;20051;-81
2023/12/22 07:24:47;;;;;;;17.77;4.82;;;;;;;9.86;91.83;99678.31;4917205;29;20063;-82
2023/12/22 08:08:33;;;;;;;31.20;7.10;;;;;;;9.81;97.13;99639.63;4727516;29;20235;-82
2023/12/22 08:11:13;;;;;;;19.48;5.18;;;;;;;9.61;97.13;99669.81;4871394;29;20052;-81
2023/12/22 08:16:40;;;;;;;25.17;6.45;;;;;;;9.49;97.97;99638.03;4952216;28;20130;-80
2023/12/22 08:19:12;;;;;;;24.02;7.55;;;;;;;9.91;96.74;99639.41;4963669;28;20051;-81
2023/12/22 08:21:41;;;;;;;27.60;7.50;;;;;;;9.84;97.52;99648.91;4963493;29;20542;-82
2023/12/22 08:24:13;;;;;;;28.88;9.20;;;;;;;10.07;98.21;99665.38;4962290;28;20514;-82
2023/12/22 08:26:40;;;;;;;30.13;7.28;;;;;;;10.03;97.68;99664.09;4955720;29;20059;-80
2023/12/22 08:29:08;;;;;;;28.15;6.95;;;;;;;10.13;96.98;99664.69;4965671;28;20055;-81
2023/12/22 08:31:39;;;;;;;34.75;7.38;;;;;;;10.19;97.33;99658.78;4952389;29;20047;-81
2023/12/22 08:34:12;;;;;;;38.13;7.25;;;;;;;10.00;96.89;99643.53;4960125;29;20078;-81
2023/12/22 08:36:39;;;;;;;35.47;7.03;;;;;;;10.09;96.75;99654.75;4958242;29;20062;-82
2023/12/22 08:39:07;;;;;;;30.17;7.55;;;;;;;10.40;95.73;99655.47;4959941;29;20082;-81
2023/12/22 08:41:37;;;;;;;31.75;7.25;;;;;;;10.36;95.61;99648.19;4961573;29;20059;-81
2023/12/22 08:44:05;;;;;;;35.88;7.32;;;;;;;10.36;95.11;99645.56;4962579;29;20047;-82
2023/12/22 08:46:32;;;;;;;22.25;5.90;;;;;;;10.04;95.12;99636.97;4963663;29;20075;-82
2023/12/22 08:49:01;;;;;;;31.23;7.07;;;;;;;10.41;94.37;99633.53;4959856;28;20057;-81
2023/12/22 08:51:30;;;;;;;31.45;6.75;;;;;;;10.48;93.65;99625.78;4959258;29;20059;-82
2023/12/22 08:53:57;;;;;;;28.58;6.85;;;;;;;10.41;93.42;99644.00;4959997;28;20169;-80
2023/12/22 08:56:25;;;;;;;39.90;8.13;;;;;;;10.39;93.71;99660.91;4958523;29;20055;-80
2023/12/22 08:58:58;;;;;;;34.42;7.45;;;;;;;10.57;93.97;99650.88;4954423;29;20059;-80
2023/12/22 09:01:25;;;;;;;24.85;6.68;;;;;;;10.57;93.48;99640.41;4956523;28;20102;-81
2023/12/22 09:03:56;;;;;;;24.35;5.97;;;;;;;10.53;93.19;99626.06;4958138;29;20491;-81
2023/12/22 09:06:24;;;;;;;26.10;7.05;;;;;;;10.83;93.07;99630.31;4958358;29;20048;-81
2023/12/22 09:08:52;;;;;;;30.08;8.10;;;;;;;10.67;93.15;99629.69;4958315;28;20474;-80
2023/12/22 09:11:21;;;;;;;29.98;6.47;;;;;;;10.63;93.05;99608.31;4958679;29;20066;-81
2023/12/22 09:13:51;;;;;;;19.00;5.97;;;;;;;10.66;92.00;99597.47;4960759;29;20055;-81
2023/12/22 09:16:24;;;;;;;27.38;6.35;;;;;;;10.69;92.64;99599.75;4957988;29;20118;-81
2023/12/22 09:18:54;;;;;;;26.58;6.18;;;;;;;10.70;92.71;99609.22;4959138;29;20055;-81
2023/12/22 09:21:22;;;;;;;28.55;6.00;;;;;;;10.79;92.28;99613.38;4972003;29;20091;-82
2023/12/22 09:23:50;;;;;;;28.00;5.93;;;;;;;10.89;91.98;99598.16;4972996;29;20098;-82
2023/12/22 09:26:20;;;;;;;21.80;6.28;;;;;;;10.62;92.71;99606.69;4972708;28;20051;-81
2023/12/22 09:28:50;;;;;;;18.60;5.60;;;;;;;10.71;92.82;99600.38;4971821;29;20065;-81
2023/12/22 09:31:23;;;;;;;23.92;5.90;;;;;;;10.92;92.62;99603.03;4960444;29;20055;-82
2023/12/22 09:33:58;;;;;;;19.83;6.00;;;;;;;10.97;92.33;99611.16;4956573;28;20055;-82
2023/12/22 09:36:34;;;;;;;30.20;7.25;;;;;;;10.83;92.09;99593.69;4957995;28;20057;-82
2023/12/22 09:39:01;;;;;;;22.98;5.80;;;;;;;10.90;92.17;99601.59;4956927;28;20537;-80
2023/12/22 09:41:28;;;;;;;15.88;5.07;;;;;;;10.88;92.28;99612.25;4956776;29;20059;-82
2023/12/22 09:43:57;;;;;;;19.35;5.50;;;;;;;10.85;92.39;99611.81;4957327;28;20070;-82
2023/12/22 09:46:26;;;;;;;20.92;5.78;;;;;;;11.05;92.31;99597.16;4955388;29;20062;-81
2023/12/22 09:48:54;;;;;;;19.52;5.80;;;;;;;10.92;92.22;99589.13;4956003;28;20235;-81
2023/12/22 09:51:22;;;;;;;20.55;5.40;;;;;;;11.04;92.21;99589.47;4958379;28;20059;-80
2023/12/22 09:53:50;;;;;;;14.48;4.60;;;;;;;11.25;91.89;99587.72;4957898;29;20055;-80
2023/12/22 09:56:18;;;;;;;19.15;4.95;;;;;;;11.02;92.41;99592.28;4956156;29;20119;-80
2023/12/22 09:58:46;;;;;;;16.73;4.65;;;;;;;10.90;92.49;99571.00;4955237;29;20522;-80
2023/12/22 10:01:16;;;;;;;18.25;5.00;;;;;;;11.09;92.57;99560.94;4955714;29;20112;-82
2023/12/22 10:03:44;;;;;;;15.68;4.70;;;;;;;11.00;93.20;99567.28;4957295;28;20154;-81
2023/12/22 10:06:12;;;;;;;13.57;4.32;;;;;;;11.05;93.00;99570.16;4955676;28;20055;-79
2023/12/22 10:08:40;;;;;;;11.73;4.55;;;;;;;11.03;93.00;99577.38;4955209;29;20078;-82
2023/12/22 10:11:08;;;;;;;9.80;3.95;;;;;;;11.01;93.42;99584.63;4956178;28;20058;-81
2023/12/22 10:13:37;;;;;;;13.13;4.45;;;;;;;11.17;93.88;99592.25;4954901;29;20054;-80
2023/12/22 10:16:06;;;;;;;14.90;4.28;;;;;;;11.04;94.63;99589.47;4952477;29;20073;-82
2023/12/22 10:18:33;;;;;;;13.40;4.40;;;;;;;11.02;94.74;99586.22;4956160;29;20078;-81
2023/12/22 10:21:01;;;;;;;10.80;4.88;;;;;;;11.08;95.72;99596.78;4955882;28;20142;-83
2023/12/22 10:23:28;;;;;;;9.68;4.68;;;;;;;11.04;96.66;99592.91;4957729;29;20049;-81
2023/12/22 10:25:58;;;;;;;14.35;5.90;;;;;;;10.88;97.80;99606.19;4960112;28;20103;-82
2023/12/22 10:28:24;;;;;;;9.52;5.30;;;;;;;11.01;98.46;99602.94;4967461;29;20109;-81
2023/12/22 10:30:51;;;;;;;10.15;5.40;;;;;;;11.01;98.55;99592.47;4971553;28;20047;-80
2023/12/22 10:33:19;;;;;;;10.00;5.40;;;;;;;10.80;99.33;99573.13;4963910;28;20083;-81
2023/12/22 10:35:45;;;;;;;12.48;5.40;;;;;;;11.00;99.54;99577.75;4959890;29;20082;-82
2023/12/22 10:38:12;;;;;;;11.82;5.88;;;;;;;10.97;99.22;99582.34;4957079;28;20108;-79
2023/12/22 10:40:40;;;;;;;15.55;6.18;;;;;;;10.91;99.84;99577.84;4954856;28;20130;-79
2023/12/22 10:43:07;;;;;;;11.75;5.93;;;;;;;11.18;99.94;99594.69;4960342;28;20059;-78
2023/12/22 10:45:34;;;;;;;10.20;6.95;;;;;;;10.88;100.00;99593.94;4951058;29;20142;-78
2023/12/22 10:48:01;;;;;;;9.65;4.80;;;;;;;10.86;100.00;99585.47;4945190;29;20070;-80
2023/12/22 10:50:29;;;;;;;11.88;5.93;;;;;;;10.67;100.00;99588.66;4945850;28;20047;-78
2023/12/22 10:52:55;;;;;;;14.30;6.10;;;;;;;10.78;100.00;99585.56;4950710;29;20094;-79
2023/12/22 10:55:22;;;;;;;14.68;6.32;;;;;;;10.97;100.00;99584.16;4951830;29;20118;-77
2023/12/22 10:57:52;;;;;;;16.38;5.80;;;;;;;11.02;100.00;99570.53;4955061;29;20059;-79
2023/12/22 11:00:21;;;;;;;10.73;5.57;;;;;;;11.29;100.00;99567.22;4953740;28;20055;-80
2023/12/22 11:02:49;;;;;;;7.57;4.60;;;;;;;11.14;100.00;99579.53;4943633;29;20138;-77
2023/12/22 11:05:17;;;;;;;9.07;4.40;;;;;;;11.11;100.00;99570.25;4950604;29;20093;-80
2023/12/22 11:07:49;;;;;;;7.18;4.20;;;;;;;11.28;100.00;99562.97;4953207;29;20061;-79
2023/12/22 11:10:21;;;;;;;7.50;4.37;;;;;;;11.35;100.00;99558.56;4952679;28;20047;-79
2023/12/22 11:12:51;;;;;;;7.63;4.22;;;;;;;11.47;99.98;99561.50;4951376;29;20154;-79
2023/12/22 11:15:19;;;;;;;9.40;4.47;;;;;;;11.52;99.59;99551.28;4957021;28;20075;-78
2023/12/22 11:17:47;;;;;;;7.70;4.32;;;;;;;11.51;99.29;99560.97;4954335;29;20130;-80
2023/12/22 11:20:16;;;;;;;8.30;4.68;;;;;;;11.58;98.76;99561.81;4956257;28;20376;-79
2023/12/22 11:22:43;;;;;;;5.80;4.30;;;;;;;11.43;98.90;99552.41;4946901;29;20079;-79
2023/12/22 11:25:11;;;;;;;7.93;4.70;;;;;;;11.51;98.84;99568.81;4948784;29;20040;-79
2023/12/22 11:27:38;;;;;;;11.32;4.80;;;;;;;11.63;98.19;99559.47;4955206;29;20058;-79
2023/12/22 11:30:09;;;;;;;9.57;5.38;;;;;;;11.89;97.60;99565.94;4957594;28;20070;-79
2023/12/22 11:32:36;;;;;;;7.53;4.70;;;;;;;11.82;97.35;99549.34;4951728;29;20502;-79
2023/12/22 11:35:03;;;;;;;11.68;5.20;;;;;;;11.72;97.59;99548.84;4953787;29;20062;-79
2023/12/22 11:40:20;;;;;;;8.30;4.40;;;;;;;11.68;97.28;99545.78;4909987;28;20083;-81
2023/12/22 11:42:52;;;;;;;6.53;4.20;;;;;;;12.04;96.91;99561.41;4948405;28;20051;-83
2023/12/22 11:45:22;;;;;;;6.35;4.20;;;;;;;12.21;96.19;99554.88;4952438;28;20142;-81
2023/12/22 11:47:49;;;;;;;5.72;4.05;;;;;;;12.11;95.44;99546.53;4957726;28;20044;-81
2023/12/22 11:50:29;;;;;;;8.80;4.45;;;;;;;12.15;95.79;99553.00;4960185;29;20071;-83
2023/12/22 11:53:18;;;;;;;7.50;4.20;;;;;;;12.32;95.21;99542.19;4962138;28;20054;-81
2023/12/22 11:55:59;;;;;;;7.13;3.95;;;;;;;12.40;94.58;99539.41;4960721;29;20059;-82
2023/12/22 11:58:36;;;;;;;9.15;3.92;;;;;;;12.21;94.66;99526.03;4958569;29;20070;-83
2023/12/22 12:01:06;;;;;;;6.60;3.75;;;;;;;12.17;95.05;99535.28;4960753;28;20142;-82
2023/12/22 12:03:33;;;;;;;8.82;3.53;;;;;;;12.34;94.33;99538.38;4960147;28;20063;-82
2023/12/22 12:06:33;;;;;;;10.27;4.05;;;;;;;12.72;93.32;99522.22;4963770;28;20138;-82
2023/12/22 12:09:04;;;;;;;7.40;3.42;;;;;;;12.52;93.04;99535.25;4925717;29;20122;-82
2023/12/22 12:12:11;;;;;;;7.57;3.53;;;;;;;12.45;93.38;99526.53;4962455;28;20114;-83
2023/12/22 12:14:43;;;;;;;7.45;3.72;;;;;;;12.32;95.13;99531.69;4933996;28;20063;-82
2023/12/22 12:17:11;;;;;;;9.75;3.83;;;;;;;12.30;95.58;99531.91;4958782;28;20075;-82
2023/12/22 12:19:38;;;;;;;8.18;3.92;;;;;;;12.39;95.37;99524.69;4960306;28;20051;-82
2023/12/22 12:22:05;;;;;;;9.73;4.38;;;;;;;12.68;94.93;99521.81;4959091;29;20754;-82
2023/12/22 12:24:32;;;;;;;4.40;3.42;;;;;;;12.52;94.73;99528.19;4960804;28;20513;-82
2023/12/22 12:26:59;;;;;;;7.82;3.40;;;;;;;12.32;94.20;99523.84;4960429;28;20133;-82
2023/12/22 12:29:26;;;;;;;7.78;4.07;;;;;;;12.38;94.09;99520.44;4958270;28;20078;-81
2023/12/22 12:31:52;;;;;;;5.47;3.03;;;;;;;12.47;94.03;99506.16;4958381;28;20087;-81
2023/12/22 12:34:21;;;;;;;5.60;3.42;;;;;;;12.51;94.08;99512.63;4965004;28;20130;-82
2023/12/22 12:36:48;;;;;;;5.90;3.28;;;;;;;12.37;93.58;99511.75;4966573;28;20059;-81
2023/12/22 12:39:16;;;;;;;6.22;3.38;;;;;;;12.78;93.15;99511.72;4979297;28;20078;-82
2023/12/22 12:41:45;;;;;;;6.78;3.22;;;;;;;12.76;92.42;99503.22;4973971;28;20165;-82
2023/12/22 12:44:12;;;;;;;9.15;3.40;;;;;;;12.77;92.23;99504.84;4970510;28;20054;-82
2023/12/22 12:46:41;;;;;;;7.95;3.30;;;;;;;12.56;91.69;99495.31;4967875;28;20124;-82
2023/12/22 12:49:09;;;;;;;6.57;3.10;;;;;;;12.78;90.99;99503.84;4967150;28;20510;-84
2023/12/22 12:51:43;;;;;;;7.35;3.15;;;;;;;12.71;90.86;99489.91;4952120;29;20135;-83
2023/12/22 12:54:11;;;;;;;6.10;3.17;;;;;;;12.84;90.29;99484.66;4959108;28;20126;-83
2023/12/22 12:56:39;;;;;;;7.55;3.20;;;;;;;12.74;90.22;99484.28;4958638;29;20083;-83
2023/12/22 12:59:08;;;;;;;6.03;3.22;;;;;;;12.81;90.97;99500.81;4963590;28;20052;-84
2023/12/22 13:01:39;;;;;;;6.60;3.20;;;;;;;12.88;90.79;99480.66;4954335;29;20057;-84
2023/12/22 13:04:06;;;;;;;8.35;3.60;;;;;;;12.75;91.16;99496.38;4961367;28;20147;-83
2023/12/22 13:06:33;;;;;;;8.88;3.50;;;;;;;12.74;90.76;99491.34;4960122;29;20065;-84
2023/12/22 13:09:01;;;;;;;4.00;3.20;;;;;;;12.91;90.32;99492.56;4961649;29;20058;-84
2023/12/22 13:11:30;;;;;;;4.57;2.67;;;;;;;12.77;90.01;99488.28;4961805;28;20176;-85
2023/12/22 13:13:57;;;;;;;4.68;2.70;;;;;;;12.69;90.00;99481.41;4960259;29;20054;-84
2023/12/22 13:16:26;;;;;;;3.78;2.58;;;;;;;12.95;89.67;99484.09;4960514;29;20150;-83
2023/12/22 13:18:53;;;;;;;8.90;3.20;;;;;;;12.68;90.12;99479.81;4959760;28;20106;-84
2023/12/22 13:21:20;;;;;;;7.40;3.50;;;;;;;12.62;91.10;99506.84;4960381;29;20111;-85